createdAt,value
2023-01-09T00:00:36.087Z,65.97
2023-01-09T00:03:02.922Z,65.94
2023-01-09T00:05:29.628Z,65.96
2023-01-09T00:07:56.270Z,66.06
2023-01-09T00:10:22.911Z,66.07
2023-01-09T00:12:49.691Z,65.80
2023-01-09T00:15:16.619Z,65.51
2023-01-09T00:17:43.307Z,65.44
2023-01-09T00:20:10.994Z,65.55
2023-01-09T00:22:37.761Z,65.32
2023-01-09T00:25:05.091Z,65.39
2023-01-09T00:27:32.685Z,65.15
2023-01-09T00:29:59.391Z,65.22
2023-01-09T00:32:26.677Z,65.14
2023-01-09T00:34:53.572Z,65.15
2023-01-09T00:37:20.329Z,65.04
2023-01-09T00:39:47.153Z,64.90
2023-01-09T00:42:16.554Z,64.99
2023-01-09T00:44:48.224Z,64.82
2023-01-09T00:47:18.625Z,64.80
2023-01-09T00:49:45.320Z,64.85
2023-01-09T00:52:12.055Z,64.65
2023-01-09T00:54:39.321Z,64.47
2023-01-09T00:57:06.340Z,64.42
2023-01-09T00:59:33.196Z,64.07
2023-01-09T01:02:00.228Z,64.05
2023-01-09T01:04:45.990Z,64.14
2023-01-09T01:07:31.646Z,64.07
2023-01-09T01:09:58.326Z,64.11
2023-01-09T01:12:25.044Z,64.14
2023-01-09T01:14:52.061Z,64.11
2023-01-09T01:17:18.787Z,64.07
2023-01-09T01:19:45.459Z,63.98
2023-01-09T01:22:12.152Z,63.80
2023-01-09T01:24:38.817Z,63.64
2023-01-09T01:27:05.533Z,63.60
2023-01-09T01:29:32.154Z,63.37
2023-01-09T01:31:58.995Z,63.28
2023-01-09T01:34:25.800Z,63.18
2023-01-09T01:36:52.425Z,63.04
2023-01-09T01:39:19.088Z,62.95
2023-01-09T01:41:45.869Z,62.78
2023-01-09T01:44:50.513Z,63.00
2023-01-09T01:47:17.523Z,62.92
2023-01-09T01:49:44.359Z,62.78
2023-01-09T01:52:11.234Z,62.54
2023-01-09T01:54:37.916Z,62.67
2023-01-09T01:57:04.584Z,62.57
2023-01-09T02:00:03.100Z,62.86
2023-01-09T02:02:31.660Z,62.77
2023-01-09T02:04:59.234Z,62.78
2023-01-09T02:07:26.124Z,62.72
2023-01-09T02:09:52.914Z,62.82
2023-01-09T02:12:25.149Z,62.96
2023-01-09T02:15:10.060Z,63.30
2023-01-09T02:18:01.796Z,63.54
2023-01-09T02:20:50.739Z,63.89
2023-01-09T02:23:39.797Z,64.16
2023-01-09T02:26:24.884Z,64.62
2023-01-09T02:29:29.700Z,64.80
2023-01-09T02:32:00.169Z,65.35
2023-01-09T02:34:31.035Z,65.54
2023-01-09T02:37:59.805Z,65.90
2023-01-09T02:40:51.844Z,66.44
2023-01-09T02:43:18.471Z,66.81
2023-01-09T02:45:45.157Z,67.00
2023-01-09T02:48:12.220Z,67.47
2023-01-09T02:50:43.459Z,67.62
2023-01-09T02:53:29.090Z,67.85
2023-01-09T02:56:14.277Z,68.25
2023-01-09T02:59:21.259Z,68.62
2023-01-09T03:02:15.231Z,69.12
2023-01-09T03:05:14.354Z,69.73
2023-01-09T03:07:49.321Z,70.03
2023-01-09T03:10:21.535Z,70.39
2023-01-09T03:12:49.049Z,70.46
2023-01-09T03:15:15.866Z,70.72
2023-01-09T03:17:44.206Z,70.91
2023-01-09T03:20:11.820Z,71.28
2023-01-09T03:22:40.259Z,71.53
2023-01-09T03:25:07.572Z,71.75
2023-01-09T03:27:34.243Z,72.08
2023-01-09T03:30:00.925Z,72.36
2023-01-09T03:32:27.958Z,72.55
2023-01-09T03:34:54.651Z,72.67
2023-01-09T03:37:21.283Z,72.88
2023-01-09T03:39:47.967Z,72.91
2023-01-09T03:42:14.667Z,72.86
2023-01-09T03:44:41.339Z,72.74
2023-01-09T03:47:08.309Z,72.85
2023-01-09T03:49:34.973Z,73.21
2023-01-09T03:52:01.691Z,73.34
2023-01-09T03:54:28.430Z,73.17
2023-01-09T03:56:55.097Z,73.37
2023-01-09T03:59:21.819Z,73.57
2023-01-09T04:01:48.506Z,73.70
2023-01-09T04:04:15.263Z,73.77
2023-01-09T04:06:41.989Z,73.89
2023-01-09T04:09:08.643Z,73.99
2023-01-09T04:11:35.281Z,74.38
2023-01-09T04:14:01.953Z,74.72
2023-01-09T04:16:28.595Z,74.86
2023-01-09T04:18:55.276Z,75.04
2023-01-09T04:21:22.071Z,75.23
2023-01-09T04:23:48.896Z,75.58
2023-01-09T04:26:15.548Z,75.97
2023-01-09T04:28:42.184Z,75.98
2023-01-09T04:31:08.929Z,76.25
2023-01-09T04:33:36.363Z,76.44
2023-01-09T04:36:03.160Z,76.59
2023-01-09T04:38:29.895Z,76.94
2023-01-09T04:40:56.586Z,77.14
2023-01-09T04:43:23.287Z,77.39
2023-01-09T04:45:50.022Z,77.51
2023-01-09T04:48:16.735Z,77.69
2023-01-09T04:50:43.390Z,78.03
2023-01-09T04:53:10.060Z,78.18
2023-01-09T04:55:36.663Z,78.39
2023-01-09T04:58:03.294Z,78.53
2023-01-09T05:00:30.004Z,78.86
2023-01-09T05:02:57.217Z,79.08
2023-01-09T05:05:23.943Z,79.40
2023-01-09T05:07:50.771Z,79.59
2023-01-09T05:10:17.673Z,79.83
2023-01-09T05:12:44.281Z,79.96
2023-01-09T05:15:11.613Z,80.14
2023-01-09T05:17:38.255Z,80.26
2023-01-09T05:20:05.376Z,80.21
2023-01-09T05:22:32.117Z,80.27
2023-01-09T05:25:00.449Z,80.36
2023-01-09T05:27:27.374Z,80.29
2023-01-09T05:29:54.152Z,80.28
2023-01-09T05:32:20.849Z,80.21
2023-01-09T05:34:47.470Z,80.12
2023-01-09T05:37:14.201Z,80.05
2023-01-09T05:39:40.855Z,79.87
2023-01-09T05:42:07.502Z,79.91
2023-01-09T05:44:34.214Z,79.91
2023-01-09T05:47:02.723Z,79.76
2023-01-09T05:49:29.576Z,79.48
2023-01-09T05:51:56.225Z,79.38
2023-01-09T05:54:22.878Z,79.27
2023-01-09T05:56:49.512Z,78.99
2023-01-09T05:59:16.238Z,78.56
2023-01-09T06:01:42.987Z,78.56
2023-01-09T06:04:09.692Z,78.18
2023-01-09T06:06:36.404Z,78.19
2023-01-09T06:09:03.638Z,78.19
2023-01-09T06:11:30.334Z,78.23
2023-01-09T06:13:57.111Z,78.22
2023-01-09T06:16:23.830Z,78.29
2023-01-09T06:18:50.699Z,78.44
2023-01-09T06:21:17.369Z,78.44
2023-01-09T06:23:44.084Z,78.65
2023-01-09T06:26:11.265Z,78.63
2023-01-09T06:28:38.193Z,78.70
2023-01-09T06:31:05.292Z,78.95
2023-01-09T06:33:32.272Z,79.04
2023-01-09T06:35:59.009Z,79.31
2023-01-09T10:18:58.007Z,94.56
2023-01-09T10:21:40.843Z,94.64
2023-01-09T10:24:39.871Z,94.47
2023-01-09T10:27:16.864Z,94.29
2023-01-09T10:29:58.407Z,94.25
2023-01-09T10:32:31.459Z,94.18
2023-01-09T10:35:39.296Z,94.01
2023-01-09T10:38:13.926Z,93.86
2023-01-09T10:40:46.601Z,93.67
2023-01-09T10:43:29.108Z,93.58
2023-01-09T10:45:58.233Z,93.27
2023-01-09T10:49:03.968Z,93.08
2023-01-09T10:52:14.775Z,92.77
2023-01-09T10:55:28.588Z,92.44
2023-01-09T10:58:43.918Z,92.45
2023-01-09T11:01:25.909Z,92.29
2023-01-09T11:03:52.617Z,92.05
2023-01-09T11:06:22.512Z,91.94
2023-01-09T11:08:50.863Z,91.73
2023-01-09T11:11:35.790Z,91.54
2023-01-09T11:14:14.495Z,91.62
2023-01-09T11:16:57.063Z,91.41
2023-01-09T11:19:24.064Z,91.26
2023-01-09T11:21:50.830Z,91.17
2023-01-09T11:24:25.427Z,91.08
2023-01-09T11:26:53.564Z,91.13
2023-01-09T11:29:26.248Z,91.19
2023-01-09T11:31:58.483Z,91.12
2023-01-09T11:34:26.504Z,90.87
2023-01-09T11:36:54.063Z,90.97
2023-01-09T11:39:31.724Z,90.86
2023-01-09T11:42:02.947Z,90.91
2023-01-09T11:44:30.751Z,90.88
2023-01-09T11:46:57.499Z,90.87
2023-01-09T11:49:26.196Z,90.63
2023-01-09T11:52:20.568Z,90.49
2023-01-09T11:54:59.297Z,90.80
2023-01-09T11:57:26.004Z,90.38
2023-01-09T11:59:54.420Z,90.46
2023-01-09T12:02:33.242Z,90.51
2023-01-09T12:08:14.981Z,90.71
2023-01-09T12:11:08.787Z,90.74
2023-01-09T12:13:50.368Z,90.95
2023-01-09T12:16:32.514Z,90.87
2023-01-09T12:19:02.371Z,90.92
2023-01-09T12:21:35.856Z,90.88
2023-01-09T12:24:29.888Z,90.87
2023-01-09T12:27:26.420Z,90.93
2023-01-09T12:29:56.928Z,91.10
2023-01-09T12:32:52.386Z,90.85
2023-01-09T12:35:34.503Z,90.98
2023-01-09T12:38:12.472Z,90.81
2023-01-09T12:40:42.773Z,90.76
2023-01-09T12:43:22.642Z,90.75
2023-01-09T12:46:19.335Z,90.87
2023-01-09T12:49:05.018Z,91.02
2023-01-09T12:51:52.452Z,91.08
2023-01-09T12:54:23.146Z,91.03
2023-01-09T12:56:58.267Z,91.16
2023-01-09T12:59:30.939Z,91.06
2023-01-09T13:02:05.612Z,90.90
2023-01-09T13:04:34.797Z,90.83
2023-01-09T13:07:06.708Z,90.95
2023-01-09T13:09:38.583Z,91.06
2023-01-09T13:12:21.779Z,90.81
2023-01-09T13:14:54.573Z,90.96
2023-01-09T13:17:36.912Z,91.09
2023-01-09T13:20:10.290Z,90.98
2023-01-09T13:22:37.025Z,91.19
2023-01-09T13:25:37.630Z,91.17
2023-01-09T13:28:07.965Z,91.33
2023-01-09T13:31:10.314Z,91.48
2023-01-09T13:33:38.799Z,91.58
2023-01-09T13:36:06.529Z,91.35
2023-01-09T13:38:34.461Z,91.37
2023-01-09T13:41:26.180Z,91.40
2023-01-09T13:43:55.229Z,91.55
2023-01-09T13:46:22.422Z,91.48
2023-01-09T13:48:49.187Z,91.26
2023-01-09T13:51:54.790Z,91.21
2023-01-09T13:54:55.942Z,91.31
2023-01-09T13:57:28.801Z,91.36
2023-01-09T14:00:19.025Z,91.57
2023-01-09T17:38:04.331Z,92.70
2023-01-09T17:40:31.075Z,92.37
2023-01-09T17:42:57.736Z,91.82
2023-01-09T17:45:24.432Z,91.29
2023-01-09T17:47:51.191Z,90.58
2023-01-09T17:50:19.792Z,89.94
2023-01-09T17:52:47.422Z,89.29
2023-01-09T17:55:14.399Z,88.45
2023-01-09T17:57:44.237Z,87.79
2023-01-09T18:00:28.738Z,86.79
2023-01-09T18:02:55.815Z,86.41
2023-01-09T18:05:22.988Z,85.94
2023-01-09T18:07:49.891Z,85.29
2023-01-09T18:10:18.902Z,84.65
2023-01-09T18:12:48.475Z,84.46
2023-01-09T18:15:15.260Z,83.79
2023-01-09T18:17:41.979Z,83.22
2023-01-09T18:20:09.396Z,82.52
2023-01-09T18:22:36.192Z,82.27
2023-01-09T18:25:03.624Z,82.05
2023-01-09T18:27:30.302Z,81.24
2023-01-09T18:29:57.295Z,80.64
2023-01-09T18:32:24.665Z,80.33
2023-01-09T18:34:51.276Z,80.09
2023-01-09T18:37:18.117Z,79.58
2023-01-09T18:39:44.883Z,78.95
2023-01-09T18:42:11.537Z,78.34
2023-01-09T18:44:38.178Z,77.99
2023-01-09T18:47:05.006Z,77.58
2023-01-09T18:49:31.650Z,77.36
2023-01-09T18:51:58.382Z,76.83
2023-01-09T18:54:25.032Z,76.68
2023-01-09T18:56:51.715Z,76.02
2023-01-09T18:59:18.375Z,75.50
2023-01-09T19:01:45.439Z,75.39
2023-01-09T19:04:12.097Z,75.15
2023-01-09T19:06:38.984Z,74.41
2023-01-09T19:09:06.588Z,74.36
2023-01-09T19:11:33.321Z,73.92
2023-01-09T19:14:00.000Z,72.99
2023-01-09T19:16:26.729Z,72.67
2023-01-09T19:18:53.403Z,72.45
2023-01-09T19:21:22.157Z,72.47
2023-01-09T19:23:49.187Z,72.25
2023-01-09T19:26:17.685Z,71.94
2023-01-09T19:28:46.666Z,71.16
2023-01-09T19:31:19.176Z,70.92
2023-01-09T19:33:50.265Z,70.75
2023-01-09T19:36:28.423Z,69.71
2023-01-09T19:39:04.508Z,69.31
2023-01-09T19:41:46.628Z,69.12
2023-01-09T19:44:15.936Z,68.78
2023-01-09T19:46:45.393Z,67.90
2023-01-09T19:49:12.171Z,68.08
2023-01-09T19:51:39.651Z,68.32
2023-01-09T19:54:07.060Z,67.94
2023-01-09T19:56:35.652Z,67.50
2023-01-09T19:59:03.342Z,66.85
2023-01-09T20:01:37.175Z,66.68
2023-01-09T20:04:07.580Z,66.43
2023-01-09T20:06:34.490Z,66.45
2023-01-09T20:09:02.789Z,66.53
2023-01-09T20:11:30.302Z,66.11
2023-01-09T20:13:57.099Z,66.01
2023-01-09T20:16:28.593Z,65.83
2023-01-09T20:18:57.714Z,65.47
2023-01-09T20:21:26.398Z,65.09
2023-01-09T20:23:54.690Z,64.71
2023-01-09T20:26:21.565Z,64.50
2023-01-09T20:28:48.281Z,64.18
2023-01-09T20:31:16.555Z,64.01
2023-01-09T20:33:43.862Z,63.72
2023-01-09T20:36:10.634Z,63.38
2023-01-09T20:38:38.511Z,63.38
2023-01-09T20:41:09.913Z,63.06
2023-01-09T20:43:37.811Z,62.53
2023-01-09T20:46:05.053Z,62.44
2023-01-09T20:48:31.731Z,62.28
2023-01-09T20:51:06.529Z,62.36
2023-01-09T20:53:33.640Z,62.18
2023-01-09T20:56:01.770Z,62.30
2023-01-09T20:58:28.757Z,62.03
2023-01-09T21:00:55.645Z,61.83
2023-01-09T21:03:22.587Z,61.41
2023-01-09T21:05:49.269Z,60.52
2023-01-09T21:08:17.069Z,60.61
2023-01-09T21:10:43.836Z,60.22
2023-01-09T21:13:10.665Z,59.79
2023-01-09T21:15:38.793Z,59.33
2023-01-09T21:18:05.610Z,58.75
2023-01-09T21:20:32.343Z,59.06
2023-01-09T21:22:59.086Z,58.75
2023-01-09T21:25:25.763Z,58.07
2023-01-09T21:27:52.389Z,58.06
2023-01-09T21:30:19.044Z,57.92
2023-01-09T21:32:45.698Z,57.21
2023-01-09T21:35:12.337Z,57.13
2023-01-09T21:37:39.023Z,56.89
2023-01-09T21:40:08.943Z,56.42
2023-01-09T21:42:54.232Z,56.20
2023-01-09T21:45:39.907Z,56.06
2023-01-09T21:48:06.870Z,55.84
2023-01-09T21:50:33.870Z,55.44
2023-01-09T21:53:00.576Z,55.77
2023-01-09T21:55:27.467Z,55.71
2023-01-09T21:57:57.386Z,55.44
2023-01-09T22:00:24.747Z,55.93
2023-01-09T22:02:51.599Z,55.75
2023-01-09T22:05:18.287Z,54.83
2023-01-09T22:07:44.923Z,54.82
2023-01-09T22:10:11.884Z,55.34
2023-01-09T22:12:38.859Z,55.13
2023-01-09T22:15:06.287Z,55.21
2023-01-09T22:17:33.132Z,54.91
2023-01-09T22:19:59.940Z,55.08
2023-01-09T22:22:26.702Z,55.01
2023-01-09T22:24:53.863Z,55.07
2023-01-09T22:27:20.527Z,54.91
2023-01-09T22:29:47.302Z,54.80
2023-01-09T22:32:13.994Z,55.20
2023-01-09T22:34:40.725Z,55.35
2023-01-09T22:37:07.463Z,55.49
2023-01-09T22:39:34.299Z,55.50
2023-01-09T22:42:01.020Z,55.14
2023-01-09T22:44:27.777Z,55.21
2023-01-09T22:46:54.627Z,55.59
2023-01-09T22:49:21.297Z,55.48
2023-01-09T22:51:48.037Z,55.80
2023-01-09T22:54:14.754Z,55.54
2023-01-09T22:56:41.407Z,55.58
2023-01-09T22:59:08.088Z,55.77
2023-01-09T23:01:34.807Z,55.95
2023-01-09T23:04:02.823Z,55.31
2023-01-09T23:06:29.478Z,55.21
2023-01-09T23:08:56.277Z,55.15
2023-01-09T23:11:43.824Z,55.05
2023-01-09T23:14:11.143Z,54.99
2023-01-09T23:16:37.895Z,55.47
2023-01-09T23:19:14.506Z,55.22
2023-01-09T23:21:41.621Z,55.35
2023-01-09T23:24:08.591Z,54.99
2023-01-09T23:26:35.821Z,54.93
2023-01-09T23:29:02.582Z,55.07
2023-01-09T23:31:29.355Z,55.08
2023-01-09T23:33:55.999Z,54.85
2023-01-09T23:36:22.720Z,54.88
2023-01-09T23:38:49.808Z,54.82
2023-01-09T23:41:16.672Z,54.89
2023-01-09T23:43:43.959Z,54.89
2023-01-09T23:46:12.278Z,55.15
2023-01-09T23:48:39.043Z,55.12
2023-01-09T23:51:05.993Z,54.93
2023-01-09T23:53:35.804Z,54.77
2023-01-09T23:56:03.155Z,54.91
2023-01-09T23:58:29.809Z,55.16
